Terminal Aerodrome Forecast
Issued by NWS

Home | Current Version | Previous Version | Text Only | Print | Product List | Glossary On
Versions: 1 2 3 4 5 6 7 8 9 10 11 12 13 14 15 16 17 18 19 20 21 22 23 24 25 26 27 28 29 30 31 32 33
000
FTAK31 PANC 261412 AAA
TAFAIL
TAF AMD
PAIL 261412Z 2614/2712 08007KT P6SM BKN035 OVC100
      TEMPO 2614/2618 -SHRA BKN025
     FM262000 15008KT P6SM SCT035 SCT100
     FM271000 VRB03KT P6SM SCT100 BKN150=

USA.gov is the U.S. government's official web portal to all federal, state and local government web resources and services.